메인 페이지
METAR-TAF:

METAR-TAF

공항 :

인디애나폴리스 국제공항

인디애나폴리스, 인디애나, 미국

위도: 39-43-30N, 경도: 086-16-55W, 고도: 243m

현재 날씨관측

예보는 30분 전, 06:54시(UTC)에 발표되었습니다.
서남서9kt
온도 4°C
습도 100%
기압 1013 hPa
시정: 0.4km
안개

METAR: KIND 210654Z 25009KT 1/4SM R05L/3500V6000FT FG VV002 04/04 A2991 RMK AO2 SLP132 T00440039

시각: 03:24 (07:24 UTC)

예보

예보는 2 시간 1분 전, 05:23시(UTC)에 발표되었습니다.
예보 대상 시간: 21일 06시부터 22일 12시까지 (UTC)
서남서5kt
시정: 2.4km
고도 7000ft 상공 구름 조금
박무
일시적
21일 06시부터 21일 10시까지 (UTC)
시정: 2.0km
고도 200ft 상공
안개
21일 1000시부터 (UTC)
여러 방향의 바람 4kt
시정: 1.6km
고도 7000ft 상공 구름 조금
박무
21일 1300시부터 (UTC)
여러 방향의 바람 4kt
시정: 10km
고도 20000ft 상공 구름 조금

TAF: KIND 210523Z 2106/2212 25005KT 1 1/2SM BR FEW070 TEMPO 2106/2110 1/4SM FG VV002 FM211000 VRB04KT 4SM BR FEW070 FM211300 VRB04KT P6SM FEW200

4,000개 이상의 공항 관측 자료 및 예보 (METAR 및 TAF 보고).

지도상에서 검색 가능한 기상관측소가 노란 점과 빨간 점으로 표시되어 있습니다.

기상관측소 명을 보려면 표시 위로 마우스를 이동하세요.

날씨 관측과 예보를 보려면 클릭하세요.

지도 변경 : 확대하려면 엑스 표시가 있는 녹색 버튼, 축소하려면 빼기 표시가 있는 녹색 버튼, 다음 페이지의 지도를 보려면 녹색 화살표를 클릭하세요.


METAR-TAF: